createdAt,value
2023-03-26T00:01:36.865Z,68.20
2023-03-26T00:04:06.747Z,68.10
2023-03-26T00:06:39.407Z,68.00
2023-03-26T00:09:10.193Z,67.80
2023-03-26T00:11:37.706Z,67.90
2023-03-26T00:14:05.654Z,68.00
2023-03-26T00:16:33.920Z,67.90
2023-03-26T00:19:02.013Z,67.80
2023-03-26T00:21:30.588Z,67.80
2023-03-26T00:24:07.311Z,67.40
2023-03-26T00:26:37.621Z,66.50
2023-03-26T00:29:05.005Z,67.30
2023-03-26T00:31:33.124Z,67.30
2023-03-26T00:34:03.210Z,67.30
2023-03-26T00:36:30.080Z,67.30
2023-03-26T00:38:57.004Z,67.30
2023-03-26T00:41:26.900Z,67.40
2023-03-26T00:43:57.758Z,67.20
2023-03-26T00:46:28.172Z,67.30
2023-03-26T00:48:58.822Z,67.30
2023-03-26T00:51:26.765Z,67.50
2023-03-26T00:53:53.842Z,65.40
2023-03-26T00:56:20.940Z,67.80
2023-03-26T00:58:50.188Z,67.60
2023-03-26T01:01:28.674Z,67.60
2023-03-26T01:04:28.184Z,67.20
2023-03-26T01:06:58.525Z,67.00
2023-03-26T01:09:35.449Z,67.80
2023-03-26T01:12:06.818Z,66.30
2023-03-26T01:14:33.931Z,67.80
2023-03-26T01:17:06.968Z,68.00
2023-03-26T01:19:44.660Z,67.40
2023-03-26T01:22:23.210Z,67.20
2023-03-26T01:24:56.108Z,67.60
2023-03-26T01:27:34.802Z,68.00
2023-03-26T01:30:11.170Z,67.10
2023-03-26T01:33:05.407Z,68.00
2023-03-26T01:35:48.446Z,65.90
2023-03-26T01:38:51.998Z,67.50
2023-03-26T01:41:37.744Z,66.20
2023-03-26T01:44:24.372Z,66.10
2023-03-26T01:46:52.610Z,67.00
2023-03-26T01:49:19.917Z,68.20
2023-03-26T01:51:47.724Z,68.30
2023-03-26T01:54:22.896Z,68.60
2023-03-26T01:57:24.550Z,67.30
2023-03-26T02:00:18.079Z,65.70
2023-03-26T02:02:56.883Z,65.60
2023-03-26T02:05:54.620Z,68.50
2023-03-26T02:08:35.582Z,65.80
2023-03-26T02:11:11.548Z,68.70
2023-03-26T02:13:45.815Z,68.30
2023-03-26T02:16:18.582Z,68.00
2023-03-26T02:18:51.327Z,68.60
2023-03-26T02:21:22.165Z,68.70
2023-03-26T02:23:57.667Z,68.60
2023-03-26T02:26:25.557Z,66.10
2023-03-26T02:28:52.417Z,69.10
2023-03-26T02:31:19.413Z,69.00
2023-03-26T02:33:47.655Z,69.10
2023-03-26T02:36:19.552Z,69.00
2023-03-26T02:38:46.756Z,69.00
2023-03-26T02:41:13.735Z,69.00
2023-03-26T02:43:40.747Z,68.90
2023-03-26T02:46:07.678Z,68.90
2023-03-26T02:48:34.815Z,68.90
2023-03-26T02:51:03.317Z,69.00
2023-03-26T02:53:30.521Z,69.00
2023-03-26T02:55:58.617Z,68.90
2023-03-26T02:58:30.108Z,68.90
2023-03-26T03:00:57.148Z,68.90
2023-03-26T03:03:27.331Z,68.90
2023-03-26T03:05:56.061Z,68.90
2023-03-26T03:08:26.804Z,68.90
2023-03-26T03:11:03.931Z,68.80
2023-03-26T03:13:30.720Z,67.60
2023-03-26T03:15:57.750Z,69.10
2023-03-26T03:18:24.715Z,69.00
2023-03-26T03:20:51.840Z,69.10
2023-03-26T03:23:18.723Z,69.10
2023-03-26T03:25:46.230Z,69.10
2023-03-26T03:28:13.953Z,69.10
2023-03-26T03:30:40.952Z,69.10
2023-03-26T03:33:07.929Z,69.00
2023-03-26T03:35:35.173Z,69.00
2023-03-26T03:38:02.068Z,69.00
2023-03-26T03:40:28.988Z,68.90
2023-03-26T03:42:55.895Z,69.00
2023-03-26T03:45:22.768Z,69.00
2023-03-26T03:47:49.731Z,69.00
2023-03-26T03:50:16.677Z,69.00
2023-03-26T03:52:43.566Z,69.00
2023-03-26T03:55:10.669Z,69.00
2023-03-26T03:57:38.231Z,69.00
2023-03-26T04:00:08.072Z,69.00
2023-03-26T04:02:35.362Z,69.00
2023-03-26T04:05:04.717Z,69.00
2023-03-26T04:07:32.936Z,68.80
2023-03-26T04:10:03.056Z,68.90
2023-03-26T04:12:31.564Z,69.00
2023-03-26T04:14:59.349Z,69.10
2023-03-26T04:17:26.681Z,69.10
2023-03-26T04:19:55.008Z,69.20
2023-03-26T04:22:23.550Z,69.20
2023-03-26T04:24:54.327Z,69.20
2023-03-26T04:27:27.884Z,69.20
2023-03-26T04:29:55.049Z,66.10
2023-03-26T04:32:34.229Z,69.40
2023-03-26T04:35:04.116Z,67.70
2023-03-26T04:37:41.135Z,69.30
2023-03-26T04:40:19.544Z,68.40
2023-03-26T04:42:46.606Z,69.20
2023-03-26T04:45:16.036Z,69.50
2023-03-26T04:47:43.637Z,69.30
2023-03-26T04:50:11.851Z,69.40
2023-03-26T04:52:39.166Z,69.40
2023-03-26T04:55:19.559Z,69.50
2023-03-26T04:57:53.713Z,69.20
2023-03-26T05:00:21.389Z,69.50
2023-03-26T05:02:50.572Z,69.50
2023-03-26T05:05:18.301Z,69.50
2023-03-26T05:07:45.362Z,69.50
2023-03-26T05:10:16.505Z,69.50
2023-03-26T05:12:43.584Z,69.10
2023-03-26T05:15:13.200Z,69.40
2023-03-26T05:17:41.763Z,69.20
2023-03-26T05:20:31.125Z,69.40
2023-03-26T05:22:58.096Z,66.30
2023-03-26T05:25:25.600Z,69.50
2023-03-26T05:27:52.621Z,69.40
2023-03-26T05:30:22.284Z,69.30
2023-03-26T05:32:50.091Z,69.30
2023-03-26T05:35:18.367Z,69.30
2023-03-26T05:37:47.100Z,69.30
2023-03-26T05:40:17.178Z,69.40
2023-03-26T05:42:45.400Z,69.40
2023-03-26T05:45:14.930Z,69.60
2023-03-26T05:47:41.960Z,69.50
2023-03-26T05:50:10.320Z,69.70
2023-03-26T05:52:37.778Z,69.70
2023-03-26T05:55:05.556Z,69.80
2023-03-26T05:57:32.725Z,69.70
2023-03-26T05:59:59.646Z,69.80
2023-03-26T06:02:26.494Z,69.70
2023-03-26T06:04:53.355Z,69.70
2023-03-26T06:07:21.034Z,69.60
2023-03-26T06:09:48.081Z,69.40
2023-03-26T06:12:15.757Z,69.40
2023-03-26T06:14:43.007Z,69.30
2023-03-26T06:17:10.756Z,69.40
2023-03-26T06:19:37.945Z,69.50
2023-03-26T06:22:05.595Z,69.70
2023-03-26T06:24:33.478Z,69.60
2023-03-26T06:27:00.696Z,69.70
2023-03-26T06:29:27.633Z,69.80
2023-03-26T06:31:54.606Z,69.80
2023-03-26T06:34:21.658Z,69.70
2023-03-26T06:36:48.894Z,69.90
2023-03-26T06:39:16.174Z,69.80
2023-03-26T06:41:43.179Z,69.80
2023-03-26T06:44:11.182Z,69.80
2023-03-26T06:46:38.214Z,69.80
2023-03-26T06:49:05.531Z,69.60
2023-03-26T06:51:32.484Z,69.50
2023-03-26T06:53:59.436Z,69.50
2023-03-26T06:56:26.303Z,69.60
2023-03-26T06:58:53.248Z,69.50
2023-03-26T07:01:20.342Z,69.40
2023-03-26T07:03:47.203Z,69.30
2023-03-26T07:06:14.227Z,69.30
2023-03-26T07:08:41.492Z,69.20
2023-03-26T07:11:08.474Z,69.10
2023-03-26T07:13:36.588Z,69.10
2023-03-26T07:16:03.946Z,69.00
2023-03-26T07:18:30.968Z,69.10
2023-03-26T07:20:58.372Z,69.10
2023-03-26T07:23:25.886Z,69.20
2023-03-26T07:25:53.208Z,69.20
2023-03-26T07:28:39.541Z,69.30
2023-03-26T07:31:34.751Z,68.30
2023-03-26T07:34:35.960Z,68.00
2023-03-26T07:37:20.469Z,69.80
2023-03-26T07:40:00.681Z,67.80
2023-03-26T07:43:17.252Z,69.80
2023-03-26T07:45:46.016Z,69.90
2023-03-26T07:48:21.964Z,71.50
2023-03-26T07:50:49.442Z,71.20
2023-03-26T07:53:16.766Z,72.60
2023-03-26T07:56:07.678Z,73.30
2023-03-26T07:58:58.657Z,72.40
2023-03-26T08:02:19.441Z,70.70
2023-03-26T08:05:26.503Z,72.60
2023-03-26T08:08:16.494Z,72.70
2023-03-26T08:11:23.608Z,74.00
2023-03-26T08:14:05.562Z,73.00
2023-03-26T08:16:46.020Z,75.60
2023-03-26T08:19:38.365Z,77.20
2023-03-26T08:22:37.382Z,75.90
2023-03-26T08:25:33.277Z,74.80
2023-03-26T08:28:52.951Z,75.10
2023-03-26T08:31:33.103Z,74.30
2023-03-26T08:34:01.336Z,77.50
2023-03-26T08:36:28.424Z,78.30
2023-03-26T08:38:57.416Z,78.40
2023-03-26T08:41:42.404Z,78.60
2023-03-26T08:44:29.849Z,75.20
2023-03-26T08:47:39.956Z,76.40
2023-03-26T08:50:31.023Z,75.40
2023-03-26T08:53:32.905Z,77.70
2023-03-26T08:56:43.485Z,77.20
2023-03-26T08:59:46.509Z,75.80
2023-03-26T09:02:25.888Z,75.70
2023-03-26T09:06:14.242Z,77.80
2023-03-26T09:08:53.820Z,74.20
2023-03-26T09:11:42.628Z,78.20
2023-03-26T09:14:42.706Z,77.80
2023-03-26T09:17:47.191Z,77.50
2023-03-26T09:20:50.990Z,78.20
2023-03-26T09:23:43.916Z,74.10
2023-03-26T09:26:41.697Z,74.70
2023-03-26T09:29:27.361Z,76.70
2023-03-26T09:32:35.980Z,73.70
2023-03-26T09:35:39.432Z,73.90
2023-03-26T09:38:44.125Z,75.50
2023-03-26T09:41:28.727Z,74.00
2023-03-26T09:44:23.723Z,75.80
2023-03-26T09:47:23.260Z,75.20
2023-03-26T09:50:25.429Z,77.40
2023-03-26T09:53:32.399Z,76.90
2023-03-26T09:56:46.284Z,75.70
2023-03-26T09:59:57.162Z,75.10
2023-03-26T10:03:14.697Z,77.00
2023-03-26T10:05:47.128Z,74.80
2023-03-26T10:08:41.372Z,78.80
2023-03-26T10:11:22.467Z,76.40
2023-03-26T10:13:55.284Z,79.80
2023-03-26T10:16:34.949Z,80.10
2023-03-26T10:19:29.088Z,79.20
2023-03-26T10:22:31.214Z,79.20
2023-03-26T10:25:23.519Z,79.40
2023-03-26T10:28:18.021Z,77.70
2023-03-26T10:31:28.359Z,79.00
2023-03-26T10:34:36.163Z,78.20
2023-03-26T10:37:30.971Z,77.60
2023-03-26T10:40:16.389Z,79.00
2023-03-26T10:43:15.443Z,80.00
2023-03-26T10:45:54.164Z,80.50
2023-03-26T10:48:56.561Z,78.90
2023-03-26T10:51:26.494Z,80.70
2023-03-26T10:54:15.035Z,80.90
2023-03-26T10:56:49.699Z,79.00
2023-03-26T10:59:19.037Z,80.20
2023-03-26T11:02:20.915Z,81.00
2023-03-26T11:05:41.855Z,79.50
2023-03-26T11:08:32.745Z,78.50
2023-03-26T11:11:15.542Z,80.80
2023-03-26T11:13:45.206Z,78.60
2023-03-26T11:16:43.148Z,82.30
2023-03-26T11:19:53.006Z,81.50
2023-03-26T11:22:34.696Z,81.40
2023-03-26T11:25:45.413Z,83.00
2023-03-26T11:29:03.228Z,83.00
2023-03-26T11:32:11.808Z,82.00
2023-03-26T11:35:09.082Z,83.60
2023-03-26T11:37:46.429Z,82.30
2023-03-26T11:40:34.601Z,84.20
2023-03-26T11:43:07.525Z,83.50
2023-03-26T11:45:44.068Z,84.30
2023-03-26T11:48:37.940Z,83.50
2023-03-26T11:51:18.304Z,83.70
2023-03-26T11:53:48.716Z,82.70
2023-03-26T11:57:04.541Z,82.70
2023-03-26T11:59:56.353Z,80.90
2023-03-26T12:02:37.781Z,82.30
2023-03-26T12:05:27.439Z,82.80
2023-03-26T12:08:00.728Z,81.50
2023-03-26T12:10:35.096Z,83.50
2023-03-26T12:13:28.260Z,84.30
2023-03-26T12:16:17.886Z,84.90
2023-03-26T12:18:56.994Z,83.60
2023-03-26T12:21:24.025Z,85.90
2023-03-26T12:24:01.811Z,87.00
2023-03-26T12:26:36.547Z,87.20
2023-03-26T12:29:17.792Z,87.30
2023-03-26T12:32:15.827Z,88.40
2023-03-26T12:34:42.974Z,88.30
2023-03-26T12:37:43.335Z,88.50
2023-03-26T12:40:36.742Z,84.60
2023-03-26T12:44:50.407Z,84.10
2023-03-26T12:47:56.628Z,83.30
2023-03-26T12:49:12.300Z,85.20
2023-03-26T12:51:56.844Z,86.70
2023-03-26T12:54:48.445Z,84.50
2023-03-26T12:57:33.079Z,85.10
2023-03-26T13:01:06.543Z,84.70
2023-03-26T13:03:42.208Z,82.40
2023-03-26T13:06:27.578Z,86.10
2023-03-26T13:09:09.091Z,83.80
2023-03-26T13:12:18.358Z,85.80
2023-03-26T13:15:00.437Z,82.70
2023-03-26T13:18:18.112Z,85.90
2023-03-26T13:21:00.902Z,82.70
2023-03-26T13:23:56.473Z,84.00
2023-03-26T13:26:51.245Z,81.30
2023-03-26T13:29:56.475Z,82.30
2023-03-26T13:32:50.764Z,83.50
2023-03-26T13:35:39.686Z,86.50
2023-03-26T13:38:18.321Z,85.90
2023-03-26T13:41:45.805Z,84.10
2023-03-26T13:44:18.747Z,84.40
2023-03-26T13:47:20.194Z,85.60
2023-03-26T13:50:05.542Z,84.40
2023-03-26T13:52:52.884Z,84.50
2023-03-26T13:55:37.325Z,83.10
2023-03-26T13:58:20.866Z,84.00
2023-03-26T14:01:16.885Z,83.30
2023-03-26T14:04:00.875Z,81.10
2023-03-26T14:06:46.652Z,84.20
2023-03-26T14:09:39.580Z,85.30
2023-03-26T14:12:35.929Z,82.20
2023-03-26T14:15:04.408Z,81.10
2023-03-26T14:17:53.449Z,85.30
2023-03-26T14:20:56.617Z,82.70
2023-03-26T14:23:58.492Z,82.80
2023-03-26T14:27:13.081Z,81.00
2023-03-26T14:30:41.287Z,80.10
2023-03-26T14:33:50.397Z,82.00
2023-03-26T14:37:06.300Z,78.70
2023-03-26T14:40:14.694Z,80.00
2023-03-26T14:42:55.982Z,77.90
2023-03-26T14:45:53.824Z,83.30
2023-03-26T14:48:49.265Z,82.90
2023-03-26T14:51:35.413Z,78.10
2023-03-26T14:54:13.289Z,82.70
2023-03-26T14:57:11.148Z,80.80
2023-03-26T15:00:06.211Z,79.50
2023-03-26T15:03:17.537Z,81.10
2023-03-26T15:06:07.579Z,81.90
2023-03-26T15:08:34.515Z,80.70
2023-03-26T15:11:47.891Z,84.40
2023-03-26T15:15:13.722Z,79.00
2023-03-26T15:18:06.270Z,79.90
2023-03-26T15:20:48.319Z,80.30
2023-03-26T15:23:43.004Z,84.60
2023-03-26T15:26:41.682Z,84.60
2023-03-26T15:29:43.126Z,79.10
2023-03-26T15:32:52.670Z,80.70
2023-03-26T15:35:57.832Z,78.70
2023-03-26T15:38:59.095Z,78.40
2023-03-26T15:42:04.212Z,80.30
2023-03-26T15:45:09.522Z,82.00
2023-03-26T15:48:11.802Z,80.90
2023-03-26T15:51:04.989Z,78.10
2023-03-26T15:53:51.408Z,83.50
2023-03-26T15:56:54.705Z,81.30
2023-03-26T15:59:46.367Z,78.30
2023-03-26T16:02:50.337Z,80.20
2023-03-26T16:05:27.631Z,81.50
2023-03-26T16:08:38.709Z,82.80
2023-03-26T16:11:12.540Z,80.40
2023-03-26T16:13:49.897Z,81.60
2023-03-26T16:16:24.513Z,80.10
2023-03-26T16:19:18.872Z,81.20
2023-03-26T16:22:02.217Z,81.20
2023-03-26T16:24:36.113Z,78.00
2023-03-26T16:27:10.556Z,79.50
2023-03-26T16:30:26.909Z,78.20
2023-03-26T16:32:58.906Z,74.90
2023-03-26T16:36:21.461Z,78.00
2023-03-26T16:39:16.687Z,75.40
2023-03-26T16:41:46.821Z,77.80
2023-03-26T16:44:40.187Z,80.10
2023-03-26T16:47:33.974Z,78.80
2023-03-26T16:50:33.678Z,78.60
2023-03-26T16:53:34.816Z,79.70
2023-03-26T16:56:31.047Z,78.30
2023-03-26T17:00:06.187Z,79.70
2023-03-26T17:02:43.624Z,79.00
2023-03-26T17:05:21.090Z,82.50
2023-03-26T17:08:01.789Z,80.90
2023-03-26T17:10:41.314Z,81.60
2023-03-26T17:13:20.424Z,82.20
2023-03-26T17:16:12.018Z,82.70
2023-03-26T17:19:04.320Z,81.10
2023-03-26T17:21:59.904Z,82.00
2023-03-26T17:24:32.823Z,82.50
2023-03-26T17:27:28.206Z,83.40
2023-03-26T17:30:24.964Z,81.00
2023-03-26T17:33:05.979Z,82.10
2023-03-26T17:35:44.654Z,81.50
2023-03-26T17:38:17.659Z,81.90
2023-03-26T17:40:57.608Z,82.70
2023-03-26T17:43:40.395Z,82.30
2023-03-26T17:49:31.075Z,81.40
2023-03-26T17:52:25.388Z,81.60
2023-03-26T17:54:56.873Z,82.60
2023-03-26T17:57:46.362Z,83.60
2023-03-26T18:00:31.526Z,83.10
2023-03-26T18:03:11.209Z,82.90
2023-03-26T18:05:40.040Z,83.10
2023-03-26T18:08:46.489Z,83.50
2023-03-26T18:11:46.577Z,81.20
2023-03-26T18:14:34.168Z,81.00
2023-03-26T18:17:02.614Z,81.90
2023-03-26T18:19:45.554Z,81.80
2023-03-26T18:22:28.383Z,81.00
2023-03-26T18:25:00.138Z,80.00
2023-03-26T18:27:39.148Z,80.10
2023-03-26T18:30:20.556Z,79.30
2023-03-26T18:33:12.583Z,79.10
2023-03-26T18:35:50.612Z,80.10
2023-03-26T18:38:34.989Z,80.30
2023-03-26T18:41:05.948Z,80.90
2023-03-26T18:43:35.725Z,81.20
2023-03-26T18:46:14.506Z,81.60
2023-03-26T18:48:42.244Z,81.90
2023-03-26T18:51:10.012Z,82.10
2023-03-26T18:53:54.547Z,82.10
2023-03-26T18:56:31.668Z,81.40
2023-03-26T18:59:02.415Z,82.10
2023-03-26T19:01:32.536Z,82.80
2023-03-26T19:04:05.264Z,83.00
2023-03-26T19:06:38.532Z,83.20
2023-03-26T19:09:23.872Z,83.30
2023-03-26T19:12:06.248Z,83.50
2023-03-26T19:14:37.064Z,83.40
2023-03-26T19:17:07.194Z,83.40
2023-03-26T19:19:37.803Z,83.40
2023-03-26T19:22:07.539Z,83.30
2023-03-26T19:24:35.019Z,83.50
2023-03-26T19:27:02.661Z,83.60
2023-03-26T19:29:34.109Z,83.60
2023-03-26T19:32:35.472Z,83.50
2023-03-26T19:35:04.568Z,83.30
2023-03-26T19:37:32.374Z,83.80
2023-03-26T19:40:30.149Z,83.90
2023-03-26T19:43:00.041Z,82.50
2023-03-26T19:45:27.047Z,83.70
2023-03-26T19:48:04.036Z,84.00
2023-03-26T19:50:43.806Z,84.00
2023-03-26T19:53:35.232Z,83.60
2023-03-26T19:56:15.074Z,82.70
2023-03-26T19:58:43.105Z,82.80
2023-03-26T20:01:24.930Z,83.70
2023-03-26T20:03:57.896Z,83.10
2023-03-26T20:06:41.666Z,83.50
2023-03-26T20:09:16.343Z,83.90
2023-03-26T20:11:43.488Z,84.00
2023-03-26T20:14:25.799Z,84.20
2023-03-26T20:16:53.616Z,83.40
2023-03-26T20:19:20.576Z,84.40
2023-03-26T20:21:47.494Z,84.50
2023-03-26T20:24:17.849Z,84.50
2023-03-26T20:26:46.293Z,84.20
2023-03-26T20:29:14.561Z,84.20
2023-03-26T20:31:42.512Z,84.10
2023-03-26T20:34:23.500Z,83.90
2023-03-26T20:36:55.941Z,83.30
2023-03-26T20:39:26.322Z,84.20
2023-03-26T20:41:54.777Z,83.90
2023-03-26T20:44:22.605Z,84.20
2023-03-26T20:46:51.080Z,84.30
2023-03-26T20:49:18.860Z,84.30
2023-03-26T20:51:46.924Z,84.30
2023-03-26T20:54:27.978Z,84.20
2023-03-26T20:56:54.835Z,83.00
2023-03-26T20:59:26.934Z,82.80
2023-03-26T21:01:57.342Z,84.10
2023-03-26T21:04:26.180Z,84.40
2023-03-26T21:07:00.351Z,84.50
2023-03-26T21:09:34.517Z,84.70
2023-03-26T21:12:38.231Z,84.70
2023-03-26T21:15:13.448Z,83.20
2023-03-26T21:17:49.076Z,84.70
2023-03-26T21:20:17.611Z,84.70
2023-03-26T21:23:19.077Z,84.70
2023-03-26T21:26:25.287Z,83.00
2023-03-26T21:28:52.469Z,83.70
2023-03-26T21:31:24.093Z,84.60
2023-03-26T21:33:51.920Z,84.50
2023-03-26T21:36:20.220Z,84.60
2023-03-26T21:38:47.605Z,84.60
2023-03-26T21:42:05.103Z,84.70
2023-03-26T21:44:33.873Z,83.10
2023-03-26T21:47:01.177Z,84.70
2023-03-26T21:49:28.793Z,84.70
2023-03-26T21:51:56.177Z,84.60
2023-03-26T21:54:33.375Z,84.50
2023-03-26T21:57:18.238Z,83.00
2023-03-26T22:00:15.538Z,84.30
2023-03-26T22:03:03.480Z,83.40
2023-03-26T22:05:50.440Z,83.40
2023-03-26T22:08:41.998Z,83.20
2023-03-26T22:11:12.188Z,83.10
2023-03-26T22:13:39.364Z,83.80
2023-03-26T22:16:08.871Z,83.70
2023-03-26T22:18:36.474Z,83.50
2023-03-26T22:21:04.443Z,83.50
2023-03-26T22:23:36.605Z,83.40
2023-03-26T22:26:05.872Z,83.40
2023-03-26T22:28:32.902Z,83.20
2023-03-26T22:31:05.965Z,83.20
2023-03-26T22:33:32.868Z,83.20
2023-03-26T22:35:59.736Z,83.20
2023-03-26T22:38:26.632Z,83.30
2023-03-26T22:40:58.004Z,83.40
2023-03-26T22:43:25.147Z,82.80
2023-03-26T22:45:54.175Z,83.50
2023-03-26T22:48:23.784Z,83.60
2023-03-26T22:51:08.148Z,83.50
2023-03-26T22:53:36.496Z,80.90
2023-03-26T22:56:04.219Z,83.50
2023-03-26T22:58:33.449Z,83.50
2023-03-26T23:01:16.868Z,83.70
2023-03-26T23:03:44.864Z,81.70
2023-03-26T23:06:12.941Z,83.60
2023-03-26T23:08:40.814Z,83.60
2023-03-26T23:11:14.418Z,83.60
2023-03-26T23:13:43.199Z,83.50
2023-03-26T23:16:12.275Z,83.50
2023-03-26T23:18:39.868Z,83.30
2023-03-26T23:21:13.175Z,83.60
2023-03-26T23:23:40.307Z,83.40
2023-03-26T23:26:07.334Z,83.40
2023-03-26T23:28:35.650Z,83.20
2023-03-26T23:31:07.101Z,83.10
2023-03-26T23:33:37.065Z,82.80
2023-03-26T23:36:08.983Z,82.70
2023-03-26T23:38:44.029Z,82.60
2023-03-26T23:41:14.799Z,82.50
2023-03-26T23:43:55.870Z,82.40
2023-03-26T23:46:29.982Z,82.20
2023-03-26T23:49:00.038Z,82.00
2023-03-26T23:51:27.180Z,82.10
2023-03-26T23:53:54.426Z,82.00
2023-03-26T23:56:21.577Z,81.90
2023-03-26T23:58:49.109Z,81.80
